Portada
METAR-TAF:

METAR-TAF

Aeroports :

Aeroport Internacional de Malabo

Malabo, Guinea Equatorial

latitud: 03-45-18N, longitud: 08-42-31E, altitud: 23 m

Observació

L'informe es va fer fa 1 hora i 11 minuts, a les 15:00 UTC
Vent 14 kt del Oest, variant entre Sud-Oest i Oest
Temperatura 32°C
Humitat 67%
Pressió 1007 hPa
Visibilitat 10 km o més
Escasses núvols a una alçada de 1000 ft

METAR: FGSL 081500Z 26014KT 220V280 9999 FEW010 32/25 Q1007 NOSIG

Hora: 17:11 (16:11 UTC)

Pronòstic

L'informe es va fer fa 5 hores i 11 minuts, a les 11:00 UTC
Pronòstic vàlid del 08 a les 12 UTC al 09 a les 18 UTC
Vent 8 kt del Oest
Visibilitat 10 km o més
Escasses núvols a una alçada de 1300 ft
Escasses núvols a una alçada de 2000 ft, Cumulonimbus.
Temporalment
l' 09 a les 00 UTC al 09 a les 07 UTC
tempesta

TAF: FGSL 081100Z 0812/0918 26008KT 9999 FEW013 FEW020CB TEMPO 0900/0907 TS

Observacions i pronòstics meteorològics de més de 4000 aeroports (METAR i TAF).

Les estacions disponibles són els punts grocs i vermells al mapa.

Posi el ratolí al punt desitjat per veure el nom de l'estació.

Feu clic per veure les observacions i els pronòstics meteorològics.

Per canviar el mapa: feu clic els botons verds amb una creu de color negre per apropar; al botó verd amb un guió per allunyar la imatge; o en les fletxes verdes per a mapes adjacents.


METAR-TAF: